| time (UTC) | temp C | wind direction | speed KPH | gust KPH | rain 1hr cm | rain 24hr cm | rain mn cm | humidity % | barometer mb |
| 20260510175400 | 8 | 15 | 9.7 | 11.3 | 0.00 | 0.00 | 0.00 | 58 | 1015.6 |
| 20260510174856 | 8 | 16 | 4.8 | 8.0 | 0.00 | 0.00 | 0.00 | 57 | 1015.5 |
| 20260510174355 | 8 | 12 | 4.8 | 12.9 | 0.00 | 0.00 | 0.00 | 57 | 1015.9 |
| 20260510173850 | 8 | 121 | 16.1 | 22.5 | 0.00 | 0.00 | 0.00 | 57 | 1015.7 |
| 20260510173346 | 9 | 312 | 8.0 | 11.3 | 0.00 | 0.00 | 0.00 | 56 | 1015.9 |
| 20260510172842 | 10 | 123 | 14.5 | 14.5 | 0.00 | 0.00 | 0.00 | 55 | 1015.9 |
| 20260510172339 | 10 | 12 | 14.5 | 14.5 | 0.00 | 0.00 | 0.00 | 53 | 1015.6 |
| 20260510171835 | 10 | 336 | 4.8 | 8.0 | 0.00 | 0.00 | 0.00 | 55 | 1016.1 |
| 20260510171333 | 10 | 61 | 4.8 | 11.3 | 0.00 | 0.00 | 0.00 | 56 | 1015.7 |
| 20260510170830 | 9 | 351 | 8.0 | 12.9 | 0.00 | 0.00 | 0.00 | 57 | 1016.0 |
| 20260510170326 | 10 | 17 | 16.1 | 17.7 | 0.00 | 0.00 | 0.00 | 56 | 1016.2 |
| 20260510165821 | 10 | 162 | 3.2 | 4.8 | 0.00 | 0.00 | 0.00 | 56 | 1016.1 |
| 20260510165318 | 10 | 18 | 11.3 | 12.9 | 0.00 | 0.00 | 0.00 | 57 | 1016.2 |
| 20260510164815 | 10 | 354 | 12.9 | 20.9 | 0.00 | 0.00 | 0.00 | 58 | 1016.3 |
| 20260510164313 | 10 | 5 | 11.3 | 20.9 | 0.00 | 0.00 | 0.00 | 59 | 1016.3 |
| 20260510163812 | 10 | 47 | 11.3 | 17.7 | 0.00 | 0.00 | 0.00 | 59 | 1016.4 |
| 20260510163308 | 10 | 38 | 14.5 | 24.1 | 0.00 | 0.00 | 0.00 | 58 | 1016.4 |
| 20260510162808 | 10 | 26 | 3.2 | 8.0 | 0.00 | 0.00 | 0.00 | 58 | 1016.5 |
| 20260510162306 | 10 | 349 | 4.8 | 8.0 | 0.00 | 0.00 | 0.00 | 59 | 1016.4 |
| 20260510161801 | 10 | 175 | 3.2 | 4.8 | 0.00 | 0.00 | 0.00 | 59 | 1016.4 |
| 20260510161257 | 10 | 327 | 11.3 | 14.5 | 0.00 | 0.00 | 0.00 | 59 | 1016.7 |
| 20260510160754 | 10 | 8 | 12.9 | 16.1 | 0.00 | 0.00 | 0.00 | 58 | 1016.8 |
| 20260510160250 | 10 | 14 | 8.0 | 14.5 | 0.00 | 0.00 | 0.00 | 58 | 1016.6 |
| 20260510155746 | 11 | 18 | 17.7 | 24.1 | 0.00 | 0.00 | 0.00 | 54 | 1016.6 |
| 20260510155242 | 10 | 354 | 6.4 | 9.7 | 0.00 | 0.00 | 0.00 | 56 | 1016.8 |
| 20260510154738 | 11 | 1 | 9.7 | 11.3 | 0.00 | 0.00 | 0.00 | 55 | 1016.9 |
| 20260510154234 | 10 | 11 | 9.7 | 12.9 | 0.00 | 0.00 | 0.00 | 57 | 1016.8 |
| 20260510153729 | 11 | 10 | 9.7 | 11.3 | 0.00 | 0.00 | 0.00 | 56 | 1016.8 |
| 20260510153225 | 11 | 86 | 11.3 | 12.9 | 0.00 | 0.00 | 0.00 | 56 | 1017.2 |
| 20260510152722 | 10 | 53 | 8.0 | 12.9 | 0.00 | 0.00 | 0.00 | 57 | 1016.9 |
| 20260510152218 | 10 | 141 | 4.8 | 11.3 | 0.00 | 0.00 | 0.00 | 58 | 1017.1 |
| 20260510151715 | 11 | 79 | 6.4 | 9.7 | 0.00 | 0.00 | 0.00 | 55 | 1017.1 |
| 20260510151214 | 11 | 10 | 3.2 | 3.2 | 0.00 | 0.00 | 0.00 | 57 | 1017.3 |
| 20260510150709 | 11 | 344 | 8.0 | 12.9 | 0.00 | 0.00 | 0.00 | 58 | 1017.0 |
| 20260510150204 | 11 | 331 | 14.5 | 16.1 | 0.00 | 0.00 | 0.00 | 58 | 1017.0 |
| 20260510145701 | 11 | 32 | 11.3 | 14.5 | 0.00 | 0.00 | 0.00 | 57 | 1017.3 |
| 20260510145157 | 11 | 161 | 1.6 | 1.6 | 0.00 | 0.00 | 0.00 | 58 | 1017.3 |
| 20260510144653 | 11 | 13 | 9.7 | 11.3 | 0.00 | 0.00 | 0.00 | 59 | 1017.4 |
| 20260510144150 | 10 | 7 | 17.7 | 20.9 | 0.00 | 0.00 | 0.00 | 59 | 1017.4 |
| 20260510143645 | 11 | 19 | 17.7 | 20.9 | 0.00 | 0.00 | 0.00 | 58 | 1017.3 |
| 20260510143142 | 11 | 31 | 9.7 | 12.9 | 0.00 | 0.00 | 0.00 | 56 | 1017.3 |
| 20260510142638 | 11 | 63 | 12.9 | 16.1 | 0.00 | 0.00 | 0.00 | 54 | 1017.6 |
| 20260510142135 | 11 | 166 | 4.8 | 9.7 | 0.00 | 0.00 | 0.00 | 53 | 1017.6 |
| 20260510141632 | 11 | 21 | 9.7 | 16.1 | 0.00 | 0.00 | 0.00 | 54 | 1017.6 |
| 20260510141130 | 12 | 47 | 4.8 | 9.7 | 0.00 | 0.00 | 0.00 | 53 | 1017.7 |
| 20260510140626 | 12 | 317 | 1.6 | 3.2 | 0.00 | 0.00 | 0.00 | 53 | 1017.5 |
| 20260510140126 | 11 | 53 | 1.6 | 3.2 | 0.00 | 0.00 | 0.00 | 55 | 1017.7 |
| 20260510135621 | 11 | 18 | 11.3 | 17.7 | 0.00 | 0.00 | 0.00 | 54 | 1017.6 |
| 20260510135117 | 12 | 79 | 12.9 | 14.5 | 0.00 | 0.00 | 0.00 | 52 | 1017.6 |
| 20260510134615 | 11 | 56 | 12.9 | 16.1 | 0.00 | 0.00 | 0.00 | 56 | 1018.0 |
| 20260510134112 | 11 | 40 | 8.0 | 12.9 | 0.00 | 0.00 | 0.00 | 57 | 1017.9 |
| 20260510133608 | 11 | 37 | 19.3 | 24.1 | 0.00 | 0.00 | 0.00 | 57 | 1017.9 |
| 20260510133103 | 12 | 335 | 12.9 | 17.7 | 0.00 | 0.00 | 0.00 | 57 | 1017.8 |
| 20260510132600 | 11 | 59 | 8.0 | 12.9 | 0.00 | 0.00 | 0.00 | 59 | 1017.7 |
| 20260510132057 | 11 | 16 | 9.7 | 11.3 | 0.00 | 0.00 | 0.00 | 59 | 1017.9 |
| 20260510131555 | 11 | 4 | 12.9 | 17.7 | 0.00 | 0.00 | 0.00 | 59 | 1017.9 |
| 20260510131052 | 11 | 25 | 4.8 | 8.0 | 0.00 | 0.00 | 0.00 | 60 | 1017.8 |
| 20260510130548 | 11 | 15 | 17.7 | 22.5 | 0.00 | 0.00 | 0.00 | 60 | 1017.9 |
| 20260510130046 | 11 | 11 | 6.4 | 12.9 | 0.00 | 0.00 | 0.00 | 62 | 1017.8 |
| 20260510125542 | 11 | 28 | 14.5 | 20.9 | 0.00 | 0.00 | 0.00 | 62 | 1017.9 |
| 20260510125038 | 11 | 39 | 8.0 | 11.3 | 0.00 | 0.00 | 0.00 | 61 | 1018.2 |
| 20260510124535 | 11 | 50 | 6.4 | 8.0 | 0.00 | 0.00 | 0.00 | 61 | 1018.3 |
| 20260510124032 | 11 | 31 | 9.7 | 12.9 | 0.00 | 0.00 | 0.00 | 60 | 1018.4 |
| 20260510123528 | 11 | 351 | 6.4 | 11.3 | 0.00 | 0.00 | 0.00 | 61 | 1018.3 |
| 20260510123024 | 11 | 268 | 8.0 | 12.9 | 0.00 | 0.00 | 0.00 | 62 | 1018.3 |
| 20260510122519 | 11 | 8 | 14.5 | 24.1 | 0.00 | 0.00 | 0.00 | 63 | 1018.3 |
| 20260510122015 | 11 | 8 | 24.1 | 29.0 | 0.00 | 0.00 | 0.00 | 63 | 1018.2 |
| 20260510121513 | 11 | 357 | 14.5 | 25.7 | 0.00 | 0.00 | 0.00 | 64 | 1018.6 |
| 20260510121011 | 11 | 17 | 8.0 | 14.5 | 0.00 | 0.00 | 0.00 | 64 | 1018.6 |
| 20260510120508 | 11 | 28 | 8.0 | 14.5 | 0.00 | 0.00 | 0.00 | 62 | 1018.4 |
| 20260510120004 | 11 | 32 | 6.4 | 9.7 | 0.00 | 0.00 | 0.00 | 63 | 1018.5 |
| 20260510115500 | 11 | 28 | 6.4 | 9.7 | 0.00 | 0.00 | 0.00 | 64 | 1018.8 |
| 20260510114956 | 11 | 345 | 12.9 | 14.5 | 0.00 | 0.00 | 0.00 | 64 | 1018.7 |
| 20260510114453 | 11 | 6 | 8.0 | 12.9 | 0.00 | 0.00 | 0.00 | 65 | 1018.7 |
| 20260510113949 | 11 | 64 | 11.3 | 14.5 | 0.00 | 0.00 | 0.00 | 63 | 1018.6 |
| 20260510113444 | 11 | 43 | 16.1 | 20.9 | 0.00 | 0.00 | 0.00 | 62 | 1018.8 |
| 20260510112942 | 11 | 68 | 14.5 | 16.1 | 0.00 | 0.00 | 0.00 | 63 | 1018.6 |
| 20260510112439 | 11 | 68 | 6.4 | 8.0 | 0.00 | 0.00 | 0.00 | 62 | 1018.6 |
| 20260510111936 | 11 | 103 | 6.4 | 11.3 | 0.00 | 0.00 | 0.00 | 64 | 1018.6 |
| 20260510111432 | 11 | 353 | 8.0 | 11.3 | 0.00 | 0.00 | 0.00 | 65 | 1018.5 |
| 20260510110927 | 10 | 10 | 8.0 | 11.3 | 0.00 | 0.00 | 0.00 | 67 | 1018.7 |
| 20260510110424 | 11 | 350 | 9.7 | 14.5 | 0.00 | 0.00 | 0.00 | 66 | 1019.0 |
| 20260510105920 | 11 | 12 | 11.3 | 17.7 | 0.00 | 0.00 | 0.00 | 67 | 1018.9 |
| 20260510105415 | 11 | 28 | 14.5 | 17.7 | 0.00 | 0.00 | 0.00 | 67 | 1018.9 |
| 20260510104910 | 11 | 29 | 11.3 | 14.5 | 0.00 | 0.00 | 0.00 | 67 | 1018.9 |
| 20260510104408 | 11 | 6 | 11.3 | 16.1 | 0.00 | 0.00 | 0.00 | 67 | 1019.0 |
| 20260510103904 | 11 | 12 | 16.1 | 22.5 | 0.00 | 0.00 | 0.00 | 68 | 1019.0 |
| 20260510103401 | 11 | 47 | 19.3 | 20.9 | 0.00 | 0.00 | 0.00 | 67 | 1019.1 |
| 20260510102856 | 11 | 21 | 14.5 | 16.1 | 0.00 | 0.00 | 0.00 | 67 | 1018.9 |
| 20260510102352 | 11 | 52 | 3.2 | 3.2 | 0.00 | 0.00 | 0.00 | 69 | 1018.9 |
| 20260510101850 | 10 | 20 | 17.7 | 25.7 | 0.00 | 0.00 | 0.00 | 69 | 1019.0 |
| 20260510101348 | 10 | 70 | 22.5 | 27.4 | 0.00 | 0.00 | 0.00 | 68 | 1019.0 |
| 20260510100844 | 11 | 51 | 8.0 | 11.3 | 0.00 | 0.00 | 0.00 | 68 | 1019.0 |
| 20260510100342 | 11 | 34 | 4.8 | 8.0 | 0.00 | 0.00 | 0.00 | 69 | 1019.0 |
| 20260510095838 | 10 | 347 | 12.9 | 17.7 | 0.00 | 0.00 | 0.00 | 69 | 1019.0 |
| 20260510095333 | 11 | 134 | 8.0 | 12.9 | 0.00 | 0.00 | 0.00 | 68 | 1019.2 |
| 20260510094832 | 11 | 1 | 11.3 | 17.7 | 0.00 | 0.00 | 0.00 | 67 | 1019.1 |
| 20260510094328 | 10 | 142 | 4.8 | 8.0 | 0.00 | 0.00 | 0.00 | 68 | 1019.1 |
| 20260510093825 | 11 | 52 | 17.7 | 22.5 | 0.00 | 0.00 | 0.00 | 68 | 1019.1 |
| 20260510093320 | 10 | 2 | 12.9 | 16.1 | 0.00 | 0.00 | 0.00 | 70 | 1019.2 |
| 20260510092817 | 11 | 44 | 12.9 | 16.1 | 0.00 | 0.00 | 0.00 | 69 | 1019.2 |
| 20260510092313 | 10 | 66 | 14.5 | 20.9 | 0.00 | 0.00 | 0.00 | 69 | 1019.2 |
| 20260510091809 | 10 | 223 | 9.7 | 12.9 | 0.00 | 0.00 | 0.00 | 69 | 1019.3 |
| 20260510091306 | 10 | 14 | 8.0 | 11.3 | 0.00 | 0.00 | 0.00 | 70 | 1019.3 |
| 20260510090803 | 10 | 203 | 12.9 | 16.1 | 0.00 | 0.00 | 0.00 | 70 | 1019.4 |
| 20260510090259 | 10 | 15 | 9.7 | 16.1 | 0.00 | 0.00 | 0.00 | 72 | 1019.5 |
| 20260510085756 | 10 | 33 | 11.3 | 14.5 | 0.00 | 0.00 | 0.00 | 73 | 1019.5 |
| 20260510085255 | 10 | 33 | 11.3 | 17.7 | 0.00 | 0.00 | 0.00 | 73 | 1019.5 |
| 20260510084751 | 10 | 348 | 11.3 | 14.5 | 0.00 | 0.00 | 0.00 | 73 | 1019.4 |
| 20260510084248 | 10 | 28 | 8.0 | 12.9 | 0.00 | 0.00 | 0.00 | 74 | 1019.6 |
| 20260510083745 | 10 | 22 | 11.3 | 22.5 | 0.00 | 0.00 | 0.00 | 75 | 1019.5 |
| 20260510083242 | 10 | 32 | 14.5 | 17.7 | 0.00 | 0.00 | 0.00 | 75 | 1019.6 |
| 20260510082738 | 10 | 58 | 16.1 | 20.9 | 0.00 | 0.00 | 0.00 | 76 | 1019.4 |
| 20260510082234 | 10 | 356 | 12.9 | 17.7 | 0.00 | 0.00 | 0.00 | 77 | 1019.4 |
| 20260510081733 | 10 | 12 | 6.4 | 12.9 | 0.00 | 0.00 | 0.00 | 78 | 1019.6 |
| 20260510081230 | 10 | 355 | 6.4 | 9.7 | 0.00 | 0.00 | 0.00 | 79 | 1019.4 |
| 20260510080725 | 10 | 22 | 8.0 | 14.5 | 0.00 | 0.00 | 0.00 | 79 | 1019.3 |
| 20260510080221 | 10 | 7 | 12.9 | 17.7 | 0.00 | 0.00 | 0.00 | 78 | 1019.4 |
| 20260510075718 | 10 | 343 | 17.7 | 20.9 | 0.00 | 0.00 | 0.00 | 78 | 1019.4 |
| 20260510075216 | 10 | 287 | 1.6 | 3.2 | 0.00 | 0.00 | 0.00 | 79 | 1019.3 |
| 20260510074713 | 10 | 28 | 11.3 | 11.3 | 0.00 | 0.00 | 0.00 | 79 | 1019.3 |
| 20260510074209 | 10 | 65 | 6.4 | 9.7 | 0.00 | 0.00 | 0.00 | 79 | 1019.3 |
| 20260510073705 | 10 | 64 | 9.7 | 11.3 | 0.00 | 0.00 | 0.00 | 80 | 1019.3 |
| 20260510073201 | 10 | 32 | 8.0 | 12.9 | 0.00 | 0.00 | 0.00 | 80 | 1019.3 |
| 20260510072657 | 10 | 39 | 3.2 | 3.2 | 0.00 | 0.00 | 0.00 | 80 | 1019.3 |
| 20260510072154 | 10 | 156 | 6.4 | 9.7 | 0.00 | 0.00 | 0.00 | 80 | 1019.5 |
| 20260510071650 | 10 | 33 | 6.4 | 8.0 | 0.00 | 0.00 | 0.00 | 80 | 1019.2 |
| 20260510071148 | 10 | 105 | 4.8 | 8.0 | 0.00 | 0.00 | 0.00 | 80 | 1019.3 |
| 20260510070645 | 10 | 101 | 16.1 | 22.5 | 0.00 | 0.00 | 0.00 | 80 | 1019.2 |
| 20260510070142 | 10 | 10 | 1.6 | 1.6 | 0.00 | 0.00 | 0.00 | 80 | 1019.2 |
| 20260510065637 | 10 | 6 | 4.8 | 4.8 | 0.00 | 0.00 | 0.00 | 80 | 1019.1 |
| 20260510065134 | 10 | 11 | 9.7 | 16.1 | 0.00 | 0.00 | 0.00 | 80 | 1019.1 |
| 20260510064630 | 10 | 18 | 14.5 | 27.4 | 0.00 | 0.00 | 0.00 | 80 | 1019.0 |
| 20260510064127 | 10 | 118 | 4.8 | 8.0 | 0.00 | 0.00 | 0.00 | 80 | 1019.0 |
| 20260510063624 | 10 | 13 | 4.8 | 9.7 | 0.00 | 0.00 | 0.00 | 79 | 1018.7 |
| 20260510063121 | 10 | 183 | 8.0 | 12.9 | 0.00 | 0.00 | 0.00 | 79 | 1018.7 |
| 20260510062617 | 10 | 152 | 3.2 | 4.8 | 0.00 | 0.00 | 0.00 | 79 | 1018.8 |
| 20260510062113 | 10 | 340 | 17.7 | 27.4 | 0.00 | 0.00 | 0.00 | 78 | 1018.8 |
| 20260510061609 | 10 | 15 | 14.5 | 14.5 | 0.00 | 0.00 | 0.00 | 78 | 1018.7 |
| 20260510061106 | 10 | 325 | 12.9 | 17.7 | 0.00 | 0.00 | 0.00 | 79 | 1018.5 |
| 20260510060602 | 10 | 51 | 6.4 | 11.3 | 0.00 | 0.00 | 0.00 | 79 | 1018.4 |
| 20260510060059 | 10 | 13 | 22.5 | 27.4 | 0.00 | 0.00 | 0.00 | 79 | 1018.5 |
| 20260510055554 | 10 | 107 | 11.3 | 16.1 | 0.00 | 0.00 | 0.00 | 80 | 1018.5 |
| 20260510055053 | 10 | 16 | 12.9 | 16.1 | 0.00 | 0.00 | 0.00 | 80 | 1018.5 |
| 20260510054549 | 10 | 17 | 3.2 | 4.8 | 0.00 | 0.00 | 0.00 | 80 | 1018.5 |
| 20260510054043 | 10 | 0 | 16.1 | 22.5 | 0.00 | 0.00 | 0.00 | 81 | 1018.4 |
| 20260510053538 | 10 | 125 | 14.5 | 17.7 | 0.00 | 0.00 | 0.00 | 81 | 1018.3 |
| 20260510053035 | 10 | 21 | 14.5 | 20.9 | 0.00 | 0.00 | 0.00 | 82 | 1018.5 |
| 20260510052531 | 10 | 30 | 11.3 | 12.9 | 0.00 | 0.00 | 0.00 | 82 | 1018.5 |
| 20260510052027 | 10 | 22 | 4.8 | 11.3 | 0.00 | 0.00 | 0.00 | 83 | 1018.5 |
| 20260510051523 | 10 | 45 | 8.0 | 12.9 | 0.00 | 0.00 | 0.00 | 84 | 1018.7 |
| 20260510051020 | 9 | 1 | 12.9 | 20.9 | 0.00 | 0.00 | 0.00 | 84 | 1018.5 |
| 20260510050517 | 9 | 21 | 11.3 | 12.9 | 0.00 | 0.00 | 0.00 | 85 | 1018.5 |
| 20260510050014 | 9 | 20 | 3.2 | 4.8 | 0.00 | 0.00 | 0.00 | 85 | 1018.7 |
| 20260510045512 | 9 | 332 | 6.4 | 9.7 | 0.00 | 0.00 | 0.00 | 85 | 1018.6 |
| 20260510045007 | 9 | 325 | 1.6 | 3.2 | 0.00 | 0.00 | 0.00 | 86 | 1018.7 |
| 20260510044505 | 9 | 116 | 4.8 | 11.3 | 0.00 | 0.00 | 0.00 | 86 | 1018.6 |
| 20260510044002 | 9 | 143 | 1.6 | 3.2 | 0.00 | 0.00 | 0.00 | 86 | 1018.7 |
| 20260510043457 | 9 | 41 | 4.8 | 4.8 | 0.00 | 0.00 | 0.00 | 86 | 1018.9 |
| 20260510042956 | 9 | 32 | 4.8 | 8.0 | 0.00 | 0.00 | 0.00 | 86 | 1018.6 |
| 20260510042452 | 9 | 29 | 6.4 | 8.0 | 0.00 | 0.00 | 0.00 | 86 | 1018.7 |
| 20260510041947 | 9 | 173 | 3.2 | 4.8 | 0.00 | 0.00 | 0.00 | 86 | 1018.6 |
| 20260510041444 | 9 | 22 | 1.6 | 3.2 | 0.00 | 0.00 | 0.00 | 85 | 1018.8 |
| 20260510040942 | 9 | 31 | 3.2 | 3.2 | 0.00 | 0.00 | 0.00 | 85 | 1018.8 |
| 20260510040438 | 8 | 98 | 3.2 | 4.8 | 0.00 | 0.00 | 0.00 | 85 | 1018.8 |
| 20260510035934 | 8 | 40 | 4.8 | 4.8 | 0.00 | 0.00 | 0.00 | 85 | 1018.9 |
| 20260510035430 | 8 | 14 | 8.0 | 9.7 | 0.00 | 0.00 | 0.00 | 85 | 1018.7 |
| 20260510034925 | 8 | 12 | 4.8 | 4.8 | 0.00 | 0.00 | 0.00 | 85 | 1018.9 |
| 20260510034424 | 8 | 4 | 4.8 | 4.8 | 0.00 | 0.00 | 0.00 | 85 | 1018.6 |
| 20260510033920 | 8 | 31 | 6.4 | 8.0 | 0.00 | 0.00 | 0.00 | 85 | 1018.8 |
| 20260510033416 | 8 | 148 | 3.2 | 4.8 | 0.00 | 0.00 | 0.00 | 85 | 1019.0 |
| 20260510032913 | 8 | 101 | 3.2 | 4.8 | 0.00 | 0.00 | 0.00 | 85 | 1018.9 |
| 20260510032410 | 8 | 20 | 4.8 | 8.0 | 0.00 | 0.00 | 0.00 | 85 | 1019.1 |
| 20260510031905 | 8 | 16 | 4.8 | 8.0 | 0.00 | 0.00 | 0.00 | 85 | 1019.2 |
| 20260510031400 | 8 | 83 | 0.0 | 1.6 | 0.00 | 0.00 | 0.00 | 85 | 1019.2 |
| 20260510030855 | 8 | 83 | 4.8 | 8.0 | 0.00 | 0.00 | 0.00 | 86 | 1019.1 |
| 20260510030351 | 8 | 21 | 3.2 | 4.8 | 0.00 | 0.00 | 0.00 | 86 | 1019.2 |
| 20260510025849 | 8 | 131 | 3.2 | 8.0 | 0.00 | 0.00 | 0.00 | 86 | 1019.0 |
| 20260510025347 | 8 | 11 | 1.6 | 3.2 | 0.00 | 0.00 | 0.00 | 86 | 1019.2 |
| 20260510024843 | 8 | 25 | 1.6 | 3.2 | 0.00 | 0.00 | 0.00 | 86 | 1019.2 |
| 20260510024340 | 8 | 7 | 6.4 | 8.0 | 0.00 | 0.00 | 0.00 | 86 | 1019.3 |
| 20260510023836 | 8 | 13 | 4.8 | 4.8 | 0.00 | 0.00 | 0.00 | 86 | 1019.1 |
| 20260510023333 | 8 | 18 | 3.2 | 4.8 | 0.00 | 0.00 | 0.00 | 86 | 1019.4 |
| 20260510022830 | 8 | 357 | 4.8 | 4.8 | 0.00 | 0.00 | 0.00 | 86 | 1019.3 |
| 20260510022329 | 8 | 111 | 1.6 | 1.6 | 0.00 | 0.00 | 0.00 | 86 | 1019.2 |
| 20260510021828 | 8 | 66 | 0.0 | 1.6 | 0.00 | 0.00 | 0.00 | 86 | 1019.1 |
| 20260510021327 | 8 | 7 | 1.6 | 3.2 | 0.00 | 0.00 | 0.00 | 86 | 1019.3 |
| 20260510020822 | 8 | 23 | 3.2 | 3.2 | 0.00 | 0.00 | 0.00 | 86 | 1019.1 |
| 20260510020317 | 8 | 359 | 3.2 | 3.2 | 0.00 | 0.00 | 0.00 | 86 | 1019.4 |
| 20260510015813 | 8 | 352 | 4.8 | 4.8 | 0.00 | 0.00 | 0.00 | 86 | 1019.1 |
| 20260510015310 | 8 | 35 | 1.6 | 1.6 | 0.00 | 0.00 | 0.00 | 86 | 1019.3 |
| 20260510014805 | 9 | 109 | 1.6 | 3.2 | 0.00 | 0.00 | 0.00 | 86 | 1019.2 |
| 20260510014302 | 9 | 188 | 1.6 | 1.6 | 0.00 | 0.00 | 0.00 | 86 | 1019.2 |
| 20260510013758 | 9 | 229 | 0.0 | 1.6 | 0.00 | 0.00 | 0.00 | 86 | 1019.2 |
| 20260510013254 | 9 | 348 | 1.6 | 1.6 | 0.00 | 0.00 | 0.00 | 86 | 1019.3 |
| 20260510012749 | 9 | 336 | 3.2 | 4.8 | 0.00 | 0.00 | 0.00 | 86 | 1019.3 |
| 20260510012244 | 9 | 18 | 3.2 | 3.2 | 0.00 | 0.00 | 0.00 | 86 | 1019.4 |
| 20260510011743 | 9 | 206 | 0.0 | 1.6 | 0.00 | 0.00 | 0.00 | 86 | 1019.3 |
| 20260510011239 | 9 | 299 | 3.2 | 4.8 | 0.00 | 0.00 | 0.00 | 85 | 1019.2 |
| 20260510010737 | 9 | 5 | 6.4 | 8.0 | 0.00 | 0.00 | 0.00 | 85 | 1019.3 |
| 20260510010233 | 9 | 346 | 3.2 | 3.2 | 0.00 | 0.00 | 0.00 | 85 | 1019.2 |
| 20260510005730 | 9 | 40 | 4.8 | 8.0 | 0.00 | 0.00 | 0.00 | 85 | 1019.1 |
| 20260510005226 | 9 | 13 | 3.2 | 3.2 | 0.00 | 0.00 | 0.00 | 84 | 1019.2 |
| 20260510004724 | 9 | 118 | 4.8 | 4.8 | 0.00 | 0.00 | 0.00 | 84 | 1019.4 |
| 20260510004222 | 10 | 359 | 6.4 | 8.0 | 0.00 | 0.00 | 0.00 | 84 | 1019.2 |
| 20260510003719 | 10 | 0 | 3.2 | 4.8 | 0.00 | 0.00 | 0.00 | 84 | 1019.3 |
| 20260510003215 | 10 | 31 | 3.2 | 3.2 | 0.00 | 0.00 | 0.00 | 83 | 1019.3 |
| 20260510002714 | 10 | 22 | 9.7 | 11.3 | 0.00 | 0.00 | 0.00 | 83 | 1019.3 |
| 20260510002212 | 10 | 136 | 1.6 | 1.6 | 0.00 | 0.00 | 0.00 | 83 | 1019.3 |
| 20260510001708 | 10 | 13 | 3.2 | 4.8 | 0.00 | 0.00 | 0.00 | 83 | 1019.3 |
| 20260510001207 | 10 | 47 | 8.0 | 11.3 | 0.00 | 0.00 | 0.00 | 83 | 1019.6 |
| 20260510000702 | 10 | 108 | 8.0 | 12.9 | 0.00 | 0.00 | 0.00 | 83 | 1019.8 |
| 20260510000200 | 10 | 9 | 8.0 | 12.9 | 0.00 | 0.00 | 0.00 | 83 | 1020.0 |
| 20260509235656 | 10 | 22 | 6.4 | 8.0 | 0.00 | 0.00 | 0.00 | 83 | 1020.0 |
| 20260509235152 | 10 | 18 | 6.4 | 11.3 | 0.00 | 0.00 | 0.00 | 83 | 1019.9 |
| 20260509234649 | 11 | 17 | 8.0 | 9.7 | 0.00 | 0.00 | 0.00 | 83 | 1019.7 |
| 20260509234146 | 11 | 31 | 4.8 | 4.8 | 0.00 | 0.00 | 0.00 | 83 | 1019.6 |
| 20260509233644 | 10 | 12 | 8.0 | 12.9 | 0.00 | 0.00 | 0.00 | 83 | 1019.7 |
| 20260509233141 | 10 | 19 | 11.3 | 16.1 | 0.00 | 0.00 | 0.00 | 83 | 1019.6 |
| 20260509232637 | 11 | 18 | 11.3 | 14.5 | 0.00 | 0.00 | 0.00 | 83 | 1019.7 |
| 20260509232134 | 11 | 24 | 11.3 | 12.9 | 0.00 | 0.00 | 0.00 | 84 | 1019.9 |
| 20260509231631 | 11 | 343 | 3.2 | 4.8 | 0.00 | 0.00 | 0.00 | 84 | 1019.7 |
| 20260509231128 | 11 | 15 | 3.2 | 4.8 | 0.00 | 0.00 | 0.00 | 84 | 1019.8 |
| 20260509230625 | 11 | 25 | 3.2 | 3.2 | 0.00 | 0.00 | 0.00 | 84 | 1019.5 |
| 20260509230122 | 11 | 358 | 4.8 | 4.8 | 0.00 | 0.00 | 0.00 | 84 | 1019.6 |
| 20260509225618 | 10 | 352 | 6.4 | 8.0 | 0.00 | 0.00 | 0.00 | 84 | 1019.7 |
| 20260509225113 | 10 | 105 | 8.0 | 11.3 | 0.00 | 0.00 | 0.00 | 84 | 1019.7 |
| 20260509224609 | 10 | 175 | 4.8 | 8.0 | 0.00 | 0.00 | 0.00 | 84 | 1019.4 |
| 20260509224106 | 10 | 21 | 11.3 | 14.5 | 0.00 | 0.00 | 0.00 | 84 | 1019.4 |
| 20260509223603 | 10 | 9 | 8.0 | 11.3 | 0.00 | 0.00 | 0.00 | 85 | 1019.5 |
| 20260509223101 | 10 | 357 | 8.0 | 11.3 | 0.00 | 0.00 | 0.00 | 85 | 1019.2 |
| 20260509222557 | 10 | 46 | 4.8 | 11.3 | 0.00 | 0.00 | 0.00 | 85 | 1019.3 |
| 20260509222053 | 10 | 1 | 8.0 | 11.3 | 0.00 | 0.00 | 0.00 | 85 | 1019.5 |
| 20260509221548 | 10 | 152 | 8.0 | 11.3 | 0.00 | 0.00 | 0.00 | 86 | 1019.5 |
| 20260509221045 | 10 | 20 | 9.7 | 11.3 | 0.00 | 0.00 | 0.00 | 86 | 1019.5 |
| 20260509220541 | 10 | 241 | 1.6 | 3.2 | 0.00 | 0.00 | 0.00 | 86 | 1019.3 |
| 20260509220037 | 10 | 53 | 6.4 | 8.0 | 0.00 | 0.00 | 0.00 | 86 | 1019.4 |
| 20260509215532 | 10 | 132 | 3.2 | 3.2 | 0.00 | 0.00 | 0.00 | 86 | 1019.4 |
| 20260509215030 | 10 | 103 | 4.8 | 8.0 | 0.00 | 0.00 | 0.00 | 86 | 1019.3 |
| 20260509214527 | 10 | 13 | 9.7 | 12.9 | 0.00 | 0.00 | 0.00 | 86 | 1019.3 |
| 20260509214024 | 10 | 9 | 1.6 | 3.2 | 0.00 | 0.00 | 0.00 | 86 | 1019.3 |
| 20260509213520 | 10 | 14 | 4.8 | 4.8 | 0.00 | 0.00 | 0.00 | 86 | 1019.2 |
| 20260509213017 | 10 | 5 | 4.8 | 9.7 | 0.00 | 0.00 | 0.00 | 86 | 1019.3 |
| 20260509212514 | 10 | 15 | 8.0 | 9.7 | 0.00 | 0.00 | 0.00 | 86 | 1019.2 |
| 20260509212011 | 10 | 2 | 8.0 | 9.7 | 0.00 | 0.00 | 0.00 | 86 | 1019.5 |
| 20260509211506 | 11 | 23 | 3.2 | 4.8 | 0.00 | 0.00 | 0.00 | 86 | 1019.4 |
| 20260509211003 | 11 | 15 | 8.0 | 11.3 | 0.00 | 0.00 | 0.00 | 86 | 1019.5 |
| 20260509210500 | 11 | 16 | 6.4 | 8.0 | 0.00 | 0.00 | 0.00 | 86 | 1019.4 |
| 20260509205956 | 11 | 14 | 6.4 | 9.7 | 0.00 | 0.00 | 0.00 | 85 | 1019.6 |
| 20260509205450 | 11 | 32 | 4.8 | 4.8 | 0.00 | 0.00 | 0.00 | 85 | 1019.4 |
| 20260509204946 | 11 | 73 | 4.8 | 4.8 | 0.00 | 0.00 | 0.00 | 85 | 1019.4 |
| 20260509204443 | 11 | 346 | 3.2 | 3.2 | 0.00 | 0.00 | 0.00 | 85 | 1019.5 |
| 20260509203940 | 11 | 4 | 1.6 | 3.2 | 0.00 | 0.00 | 0.00 | 85 | 1019.2 |
| 20260509203435 | 11 | 6 | 3.2 | 4.8 | 0.00 | 0.00 | 0.00 | 85 | 1019.2 |
| 20260509202933 | 11 | 64 | 11.3 | 16.1 | 0.00 | 0.00 | 0.00 | 85 | 1019.1 |
| 20260509202429 | 11 | 8 | 4.8 | 8.0 | 0.00 | 0.00 | 0.00 | 85 | 1019.2 |
| 20260509201924 | 11 | 24 | 4.8 | 8.0 | 0.00 | 0.00 | 0.00 | 85 | 1019.3 |
| 20260509201420 | 11 | 4 | 9.7 | 11.3 | 0.00 | 0.00 | 0.00 | 84 | 1019.2 |
| 20260509200917 | 11 | 2 | 4.8 | 4.8 | 0.00 | 0.00 | 0.00 | 84 | 1019.3 |
| 20260509200417 | 11 | 321 | 8.0 | 11.3 | 0.00 | 0.00 | 0.00 | 84 | 1019.4 |
| 20260509195914 | 11 | 354 | 3.2 | 3.2 | 0.00 | 0.00 | 0.00 | 83 | 1019.2 |
| 20260509195409 | 11 | 30 | 6.4 | 8.0 | 0.00 | 0.00 | 0.00 | 83 | 1019.1 |
| 20260509194909 | 11 | 42 | 1.6 | 3.2 | 0.00 | 0.00 | 0.00 | 82 | 1019.0 |
| 20260509194405 | 12 | 18 | 8.0 | 11.3 | 0.00 | 0.00 | 0.00 | 82 | 1019.0 |
| 20260509193902 | 12 | 358 | 6.4 | 8.0 | 0.00 | 0.00 | 0.00 | 81 | 1019.0 |
| 20260509193401 | 12 | 34 | 6.4 | 8.0 | 0.00 | 0.00 | 0.00 | 80 | 1019.1 |
| 20260509192858 | 12 | 124 | 4.8 | 8.0 | 0.00 | 0.00 | 0.00 | 80 | 1018.9 |
| 20260509192354 | 12 | 33 | 4.8 | 4.8 | 0.00 | 0.00 | 0.00 | 79 | 1018.6 |
| 20260509191849 | 12 | 16 | 4.8 | 4.8 | 0.00 | 0.00 | 0.00 | 78 | 1018.7 |
| 20260509191345 | 12 | 28 | 6.4 | 8.0 | 0.00 | 0.00 | 0.00 | 76 | 1018.7 |
| 20260509190842 | 13 | 17 | 6.4 | 8.0 | 0.00 | 0.00 | 0.00 | 76 | 1018.6 |
| 20260509190338 | 13 | 63 | 6.4 | 9.7 | 0.00 | 0.00 | 0.00 | 74 | 1018.7 |
| 20260509185836 | 13 | 68 | 4.8 | 9.7 | 0.00 | 0.00 | 0.00 | 73 | 1018.6 |
| 20260509185332 | 13 | 26 | 8.0 | 11.3 | 0.00 | 0.00 | 0.00 | 71 | 1018.7 |
| 20260509184830 | 13 | 22 | 6.4 | 11.3 | 0.00 | 0.00 | 0.00 | 70 | 1018.7 |
| 20260509184327 | 13 | 9 | 4.8 | 4.8 | 0.00 | 0.00 | 0.00 | 69 | 1018.7 |
| 20260509183823 | 14 | 40 | 6.4 | 9.7 | 0.00 | 0.00 | 0.00 | 68 | 1018.5 |
| 20260509183319 | 15 | 216 | 1.6 | 1.6 | 0.00 | 0.00 | 0.00 | 68 | 1018.9 |
| 20260509182815 | 15 | 329 | 1.6 | 3.2 | 0.00 | 0.00 | 0.00 | 68 | 1018.6 |
| 20260509182312 | 14 | 30 | 3.2 | 3.2 | 0.00 | 0.00 | 0.00 | 68 | 1018.7 |
| 20260509181809 | 15 | 9 | 9.7 | 11.3 | 0.00 | 0.00 | 0.00 | 66 | 1018.6 |
| 20260509181307 | 15 | 22 | 8.0 | 11.3 | 0.00 | 0.00 | 0.00 | 65 | 1018.4 |
| 20260509180804 | 15 | 2 | 1.6 | 8.0 | 0.00 | 0.00 | 0.00 | 65 | 1018.6 |
| 20260509180300 | 15 | 34 | 8.0 | 9.7 | 0.00 | 0.00 | 0.00 | 65 | 1018.5 |